Main page
METAR-TAF:

METAR-TAF

Airports :

Jizan Regional Airport

Jizan, Saudi Arabia

latitude: 16-54N, longitude: 042-35E, elevation: 6 m

Current weather observation

The report was made 1 hour and 7 minutes ago, at 20:00 UTC
Wind 3 kt from the East/Northeast
Temperature 25°C
Humidity 79%
Pressure 1014 hPa
Visibility 10 km or more
no clouds below 1500 m and no cumulonimbus

METAR: OEGN 222000Z 07003KT CAVOK 25/21 Q1014 NOSIG

Time: 00:07 (21:07 UTC)

Forecast

The report was made 10 hours and 7 minutes ago, at 11:00 UTC
Forecast valid from 22 at 12 UTC to 23 at 18 UTC
Wind 10 kt from the West/Southwest
Visibility 10 km or more
Scattered clouds at a height of 3000 ft
Becoming
from 22 at 16 UTC to 22 at 18 UTC
Wind 3 kt from variable directions
Visibility: 6000 m
Becoming
from 23 at 06 UTC to 23 at 08 UTC
Wind 10 kt from the South/Southwest
Visibility 10 km or more
Few clouds at a height of 3000 ft

TAF: OEGN 221100Z 2212/2318 24010KT 9999 SCT030 BECMG 2216/2218 VRB03KT 6000 NSC BECMG 2306/2308 20010KT 9999 FEW030

Weather observations and forecasts of more than 4000 airports (METAR and TAF reports).

The available stations are represented by yellow and red dots on the map.

Hover mouse over dot to see the name of the station.

Then click to see weather observations and forecasts.

To change the map : click on the green buttons with a black cross to zoom in, on the green button with a dash to zoom out, or on the green arrows for adjacent maps.


METAR-TAF: